sensor_id;sensor_type;location;lat;lon;timestamp;pressure;altitude;pressure_sealevel;temperature
66403;BMP180;53212;52.112;5.144;2023-03-12T00:00:33;101073.60;;;2.30
66403;BMP180;53212;52.112;5.144;2023-03-12T00:02:59;101068.60;;;2.30
66403;BMP180;53212;52.112;5.144;2023-03-12T00:05:24;101067.60;;;2.30
66403;BMP180;53212;52.112;5.144;2023-03-12T00:07:51;101058.00;;;2.30
66403;BMP180;53212;52.112;5.144;2023-03-12T00:10:18;101053.80;;;2.30
66403;BMP180;53212;52.112;5.144;2023-03-12T00:12:44;101060.40;;;2.30
66403;BMP180;53212;52.112;5.144;2023-03-12T00:15:09;101063.00;;;2.30
66403;BMP180;53212;52.112;5.144;2023-03-12T00:17:35;101057.00;;;2.30
66403;BMP180;53212;52.112;5.144;2023-03-12T00:20:00;101051.00;;;2.30
66403;BMP180;53212;52.112;5.144;2023-03-12T00:22:26;101052.40;;;2.30
66403;BMP180;53212;52.112;5.144;2023-03-12T00:24:54;101051.40;;;2.30
66403;BMP180;53212;52.112;5.144;2023-03-12T00:27:21;101052.00;;;2.30
66403;BMP180;53212;52.112;5.144;2023-03-12T00:29:47;101054.40;;;2.30
66403;BMP180;53212;52.112;5.144;2023-03-12T00:32:12;101048.40;;;2.30
66403;BMP180;53212;52.112;5.144;2023-03-12T00:34:38;101052.60;;;2.30
66403;BMP180;53212;52.112;5.144;2023-03-12T00:37:03;101056.40;;;2.30
66403;BMP180;53212;52.112;5.144;2023-03-12T00:39:29;101055.00;;;2.30
66403;BMP180;53212;52.112;5.144;2023-03-12T00:41:54;101054.80;;;2.30
66403;BMP180;53212;52.112;5.144;2023-03-12T00:44:19;101052.60;;;2.30
66403;BMP180;53212;52.112;5.144;2023-03-12T00:46:45;101051.60;;;2.30
66403;BMP180;53212;52.112;5.144;2023-03-12T00:49:10;101053.80;;;2.30
66403;BMP180;53212;52.112;5.144;2023-03-12T00:51:37;101045.80;;;2.28
66403;BMP180;53212;52.112;5.144;2023-03-12T00:54:03;101036.00;;;2.30
66403;BMP180;53212;52.112;5.144;2023-03-12T00:56:29;101030.60;;;2.24
66403;BMP180;53212;52.112;5.144;2023-03-12T00:58:54;101028.20;;;2.20
66403;BMP180;53212;52.112;5.144;2023-03-12T01:01:20;101025.80;;;2.20
66403;BMP180;53212;52.112;5.144;2023-03-12T01:03:46;101018.80;;;2.20
66403;BMP180;53212;52.112;5.144;2023-03-12T01:06:11;101013.00;;;2.22
66403;BMP180;53212;52.112;5.144;2023-03-12T01:08:37;101014.00;;;2.30
66403;BMP180;53212;52.112;5.144;2023-03-12T01:11:04;101009.40;;;2.30
66403;BMP180;53212;52.112;5.144;2023-03-12T01:13:29;101008.20;;;2.30
66403;BMP180;53212;52.112;5.144;2023-03-12T01:15:55;101012.40;;;2.30
66403;BMP180;53212;52.112;5.144;2023-03-12T01:18:20;101009.40;;;2.30
66403;BMP180;53212;52.112;5.144;2023-03-12T01:20:46;101009.60;;;2.30
66403;BMP180;53212;52.112;5.144;2023-03-12T01:23:11;101015.40;;;2.30
66403;BMP180;53212;52.112;5.144;2023-03-12T01:25:37;101019.40;;;2.30
66403;BMP180;53212;52.112;5.144;2023-03-12T01:28:03;101023.20;;;2.34
66403;BMP180;53212;52.112;5.144;2023-03-12T01:30:29;101020.00;;;2.40
66403;BMP180;53212;52.112;5.144;2023-03-12T01:32:55;101023.40;;;2.40
66403;BMP180;53212;52.112;5.144;2023-03-12T01:35:20;101019.60;;;2.40
66403;BMP180;53212;52.112;5.144;2023-03-12T01:37:46;101014.60;;;2.36
66403;BMP180;53212;52.112;5.144;2023-03-12T01:40:20;101016.40;;;2.38
66403;BMP180;53212;52.112;5.144;2023-03-12T01:42:57;101012.00;;;2.32
66403;BMP180;53212;52.112;5.144;2023-03-12T01:48:42;101004.40;;;2.30
66403;BMP180;53212;52.112;5.144;2023-03-12T01:51:11;101004.80;;;2.32
66403;BMP180;53212;52.112;5.144;2023-03-12T01:53:38;101001.20;;;2.32
66403;BMP180;53212;52.112;5.144;2023-03-12T01:56:05;100996.00;;;2.34
66403;BMP180;53212;52.112;5.144;2023-03-12T01:58:33;100999.20;;;2.40
66403;BMP180;53212;52.112;5.144;2023-03-12T02:01:00;100999.00;;;2.40
66403;BMP180;53212;52.112;5.144;2023-03-12T02:03:28;100994.80;;;2.40
66403;BMP180;53212;52.112;5.144;2023-03-12T02:06:01;100988.40;;;2.40
66403;BMP180;53212;52.112;5.144;2023-03-12T02:08:27;100981.60;;;2.40
66403;BMP180;53212;52.112;5.144;2023-03-12T02:10:52;100977.40;;;2.40
66403;BMP180;53212;52.112;5.144;2023-03-12T02:13:18;100973.60;;;2.40
66403;BMP180;53212;52.112;5.144;2023-03-12T02:15:44;100965.80;;;2.40
66403;BMP180;53212;52.112;5.144;2023-03-12T02:18:15;100964.20;;;2.46
66403;BMP180;53212;52.112;5.144;2023-03-12T02:26:08;100959.60;;;2.50
66403;BMP180;53212;52.112;5.144;2023-03-12T02:28:36;100952.60;;;2.50
66403;BMP180;53212;52.112;5.144;2023-03-12T02:31:12;100952.60;;;2.50
66403;BMP180;53212;52.112;5.144;2023-03-12T02:33:38;100942.40;;;2.50
66403;BMP180;53212;52.112;5.144;2023-03-12T02:36:04;100927.60;;;2.50
66403;BMP180;53212;52.112;5.144;2023-03-12T02:38:42;100929.20;;;2.50
66403;BMP180;53212;52.112;5.144;2023-03-12T02:41:30;100924.40;;;2.60
66403;BMP180;53212;52.112;5.144;2023-03-12T02:44:06;100921.20;;;2.60
66403;BMP180;53212;52.112;5.144;2023-03-12T02:46:39;100927.00;;;2.60
66403;BMP180;53212;52.112;5.144;2023-03-12T02:49:05;100925.00;;;2.56
66403;BMP180;53212;52.112;5.144;2023-03-12T02:51:31;100917.00;;;2.50
66403;BMP180;53212;52.112;5.144;2023-03-12T02:53:56;100902.80;;;2.50
66403;BMP180;53212;52.112;5.144;2023-03-12T02:56:24;100911.60;;;2.54
66403;BMP180;53212;52.112;5.144;2023-03-12T02:58:50;100907.40;;;2.58
66403;BMP180;53212;52.112;5.144;2023-03-12T03:01:16;100902.00;;;2.56
66403;BMP180;53212;52.112;5.144;2023-03-12T03:03:42;100892.40;;;2.52
66403;BMP180;53212;52.112;5.144;2023-03-12T03:06:08;100897.60;;;2.50
66403;BMP180;53212;52.112;5.144;2023-03-12T03:08:33;100896.80;;;2.50
66403;BMP180;53212;52.112;5.144;2023-03-12T03:10:59;100898.20;;;2.50
66403;BMP180;53212;52.112;5.144;2023-03-12T03:13:28;100889.60;;;2.50
66403;BMP180;53212;52.112;5.144;2023-03-12T03:15:54;100890.60;;;2.50
66403;BMP180;53212;52.112;5.144;2023-03-12T03:18:23;100885.00;;;2.50
66403;BMP180;53212;52.112;5.144;2023-03-12T03:21:03;100873.60;;;2.50
66403;BMP180;53212;52.112;5.144;2023-03-12T03:23:29;100864.40;;;2.54
66403;BMP180;53212;52.112;5.144;2023-03-12T03:25:55;100864.80;;;2.50
66403;BMP180;53212;52.112;5.144;2023-03-12T03:28:22;100861.20;;;2.50
66403;BMP180;53212;52.112;5.144;2023-03-12T03:30:51;100855.40;;;2.52
66403;BMP180;53212;52.112;5.144;2023-03-12T03:33:17;100857.80;;;2.58
66403;BMP180;53212;52.112;5.144;2023-03-12T03:35:42;100847.80;;;2.60
66403;BMP180;53212;52.112;5.144;2023-03-12T03:38:07;100846.40;;;2.60
66403;BMP180;53212;52.112;5.144;2023-03-12T03:40:33;100848.80;;;2.60
66403;BMP180;53212;52.112;5.144;2023-03-12T03:42:58;100841.60;;;2.60
66403;BMP180;53212;52.112;5.144;2023-03-12T03:45:24;100842.60;;;2.60
66403;BMP180;53212;52.112;5.144;2023-03-12T03:47:50;100841.20;;;2.60
66403;BMP180;53212;52.112;5.144;2023-03-12T03:50:16;100831.40;;;2.62
66403;BMP180;53212;52.112;5.144;2023-03-12T03:52:41;100836.40;;;2.60
66403;BMP180;53212;52.112;5.144;2023-03-12T03:55:07;100839.00;;;2.60
66403;BMP180;53212;52.112;5.144;2023-03-12T03:57:33;100841.40;;;2.60
66403;BMP180;53212;52.112;5.144;2023-03-12T03:59:58;100843.60;;;2.60
66403;BMP180;53212;52.112;5.144;2023-03-12T04:02:25;100840.80;;;2.60
66403;BMP180;53212;52.112;5.144;2023-03-12T04:04:52;100831.20;;;2.60
66403;BMP180;53212;52.112;5.144;2023-03-12T04:07:17;100834.40;;;2.60
66403;BMP180;53212;52.112;5.144;2023-03-12T04:09:43;100838.20;;;2.60
66403;BMP180;53212;52.112;5.144;2023-03-12T04:12:08;100837.40;;;2.60
66403;BMP180;53212;52.112;5.144;2023-03-12T04:14:34;100830.40;;;2.58
66403;BMP180;53212;52.112;5.144;2023-03-12T04:16:59;100824.80;;;2.58
66403;BMP180;53212;52.112;5.144;2023-03-12T04:19:25;100824.00;;;2.60
66403;BMP180;53212;52.112;5.144;2023-03-12T04:21:50;100815.80;;;2.60
66403;BMP180;53212;52.112;5.144;2023-03-12T04:24:16;100814.40;;;2.62
66403;BMP180;53212;52.112;5.144;2023-03-12T04:26:42;100809.80;;;2.70
66403;BMP180;53212;52.112;5.144;2023-03-12T04:29:08;100810.60;;;2.70
66403;BMP180;53212;52.112;5.144;2023-03-12T04:31:33;100804.60;;;2.70
66403;BMP180;53212;52.112;5.144;2023-03-12T04:33:59;100797.20;;;2.70
66403;BMP180;53212;52.112;5.144;2023-03-12T04:36:25;100795.00;;;2.70
66403;BMP180;53212;52.112;5.144;2023-03-12T04:38:51;100790.80;;;2.70
66403;BMP180;53212;52.112;5.144;2023-03-12T04:41:17;100785.80;;;2.72
66403;BMP180;53212;52.112;5.144;2023-03-12T04:43:42;100780.80;;;2.74
66403;BMP180;53212;52.112;5.144;2023-03-12T04:46:08;100773.60;;;2.80
66403;BMP180;53212;52.112;5.144;2023-03-12T04:48:34;100763.00;;;2.80
66403;BMP180;53212;52.112;5.144;2023-03-12T04:51:01;100760.00;;;2.80
66403;BMP180;53212;52.112;5.144;2023-03-12T04:53:27;100749.80;;;2.80
66403;BMP180;53212;52.112;5.144;2023-03-12T04:55:53;100737.60;;;2.78
66403;BMP180;53212;52.112;5.144;2023-03-12T04:58:19;100730.00;;;2.74
66403;BMP180;53212;52.112;5.144;2023-03-12T05:00:47;100731.60;;;2.72
66403;BMP180;53212;52.112;5.144;2023-03-12T05:03:13;100725.20;;;2.70
66403;BMP180;53212;52.112;5.144;2023-03-12T05:05:38;100730.60;;;2.72
66403;BMP180;53212;52.112;5.144;2023-03-12T05:08:04;100732.20;;;2.76
66403;BMP180;53212;52.112;5.144;2023-03-12T05:10:31;100728.60;;;2.74
66403;BMP180;53212;52.112;5.144;2023-03-12T05:12:56;100717.00;;;2.70
66403;BMP180;53212;52.112;5.144;2023-03-12T05:15:22;100717.00;;;2.70
66403;BMP180;53212;52.112;5.144;2023-03-12T05:17:48;100713.20;;;2.70
66403;BMP180;53212;52.112;5.144;2023-03-12T05:20:13;100712.40;;;2.70
66403;BMP180;53212;52.112;5.144;2023-03-12T05:22:39;100714.20;;;2.70
66403;BMP180;53212;52.112;5.144;2023-03-12T05:25:05;100711.00;;;2.70
66403;BMP180;53212;52.112;5.144;2023-03-12T05:27:31;100712.60;;;2.70
66403;BMP180;53212;52.112;5.144;2023-03-12T05:29:57;100708.40;;;2.70
66403;BMP180;53212;52.112;5.144;2023-03-12T05:32:22;100713.20;;;2.70
66403;BMP180;53212;52.112;5.144;2023-03-12T05:34:48;100711.40;;;2.70
66403;BMP180;53212;52.112;5.144;2023-03-12T05:37:13;100706.20;;;2.70
66403;BMP180;53212;52.112;5.144;2023-03-12T05:39:39;100704.20;;;2.72
66403;BMP180;53212;52.112;5.144;2023-03-12T05:42:12;100699.20;;;2.76
66403;BMP180;53212;52.112;5.144;2023-03-12T05:44:38;100703.20;;;2.78
66403;BMP180;53212;52.112;5.144;2023-03-12T05:47:04;100703.40;;;2.80
66403;BMP180;53212;52.112;5.144;2023-03-12T05:49:30;100696.40;;;2.78
66403;BMP180;53212;52.112;5.144;2023-03-12T05:51:56;100695.40;;;2.80
66403;BMP180;53212;52.112;5.144;2023-03-12T05:54:21;100700.40;;;2.80
66403;BMP180;53212;52.112;5.144;2023-03-12T05:56:47;100698.40;;;2.80
66403;BMP180;53212;52.112;5.144;2023-03-12T05:59:12;100708.20;;;2.80
66403;BMP180;53212;52.112;5.144;2023-03-12T06:01:39;100710.00;;;2.80
66403;BMP180;53212;52.112;5.144;2023-03-12T06:04:04;100708.60;;;2.88
66403;BMP180;53212;52.112;5.144;2023-03-12T06:06:32;100701.40;;;2.86
66403;BMP180;53212;52.112;5.144;2023-03-12T06:08:58;100697.00;;;2.80
66403;BMP180;53212;52.112;5.144;2023-03-12T06:11:23;100690.80;;;2.80
66403;BMP180;53212;52.112;5.144;2023-03-12T06:13:49;100691.20;;;2.80
66403;BMP180;53212;52.112;5.144;2023-03-12T06:16:23;100701.60;;;2.80
66403;BMP180;53212;52.112;5.144;2023-03-12T06:18:55;100705.80;;;2.80
66403;BMP180;53212;52.112;5.144;2023-03-12T06:21:24;100705.80;;;2.80
66403;BMP180;53212;52.112;5.144;2023-03-12T06:23:51;100696.80;;;2.80
66403;BMP180;53212;52.112;5.144;2023-03-12T06:26:18;100696.20;;;2.80
66403;BMP180;53212;52.112;5.144;2023-03-12T06:28:45;100698.20;;;2.80
66403;BMP180;53212;52.112;5.144;2023-03-12T06:31:11;100688.60;;;2.80
66403;BMP180;53212;52.112;5.144;2023-03-12T06:33:37;100675.80;;;2.80
66403;BMP180;53212;52.112;5.144;2023-03-12T06:36:05;100680.80;;;2.88
66403;BMP180;53212;52.112;5.144;2023-03-12T06:38:31;100678.00;;;2.90
66403;BMP180;53212;52.112;5.144;2023-03-12T06:41:07;100673.80;;;2.90
66403;BMP180;53212;52.112;5.144;2023-03-12T06:43:35;100672.00;;;2.90
66403;BMP180;53212;52.112;5.144;2023-03-12T06:46:02;100664.20;;;2.80
66403;BMP180;53212;52.112;5.144;2023-03-12T06:48:30;100662.00;;;2.80
66403;BMP180;53212;52.112;5.144;2023-03-12T06:50:58;100664.60;;;2.80
66403;BMP180;53212;52.112;5.144;2023-03-12T06:53:24;100661.80;;;2.80
66403;BMP180;53212;52.112;5.144;2023-03-12T06:55:51;100654.60;;;2.82
66403;BMP180;53212;52.112;5.144;2023-03-12T06:58:17;100654.20;;;2.90
66403;BMP180;53212;52.112;5.144;2023-03-12T07:00:42;100650.00;;;2.90
66403;BMP180;53212;52.112;5.144;2023-03-12T07:03:08;100648.40;;;2.90
66403;BMP180;53212;52.112;5.144;2023-03-12T07:05:33;100641.20;;;2.94
66403;BMP180;53212;52.112;5.144;2023-03-12T07:07:59;100634.20;;;3.00
66403;BMP180;53212;52.112;5.144;2023-03-12T07:10:25;100624.60;;;3.00
66403;BMP180;53212;52.112;5.144;2023-03-12T07:12:55;100629.20;;;3.00
66403;BMP180;53212;52.112;5.144;2023-03-12T07:15:21;100626.40;;;3.10
66403;BMP180;53212;52.112;5.144;2023-03-12T07:17:46;100635.00;;;3.12
66403;BMP180;53212;52.112;5.144;2023-03-12T07:20:12;100632.60;;;3.10
66403;BMP180;53212;52.112;5.144;2023-03-12T07:22:37;100631.60;;;3.10
66403;BMP180;53212;52.112;5.144;2023-03-12T07:25:03;100631.20;;;3.10
66403;BMP180;53212;52.112;5.144;2023-03-12T07:27:29;100632.20;;;3.10
66403;BMP180;53212;52.112;5.144;2023-03-12T07:29:54;100651.40;;;3.18
66403;BMP180;53212;52.112;5.144;2023-03-12T07:32:20;100649.00;;;3.20
66403;BMP180;53212;52.112;5.144;2023-03-12T07:34:45;100656.80;;;3.24
66403;BMP180;53212;52.112;5.144;2023-03-12T07:37:11;100663.60;;;3.28
66403;BMP180;53212;52.112;5.144;2023-03-12T07:39:36;100658.60;;;3.30
66403;BMP180;53212;52.112;5.144;2023-03-12T07:42:02;100656.00;;;3.30
66403;BMP180;53212;52.112;5.144;2023-03-12T07:44:28;100659.80;;;3.30
66403;BMP180;53212;52.112;5.144;2023-03-12T07:46:53;100663.80;;;3.30
66403;BMP180;53212;52.112;5.144;2023-03-12T07:49:18;100664.00;;;3.30
66403;BMP180;53212;52.112;5.144;2023-03-12T07:51:45;100667.40;;;3.30
66403;BMP180;53212;52.112;5.144;2023-03-12T07:54:10;100665.00;;;3.40
66403;BMP180;53212;52.112;5.144;2023-03-12T07:56:36;100667.00;;;3.40
66403;BMP180;53212;52.112;5.144;2023-03-12T07:59:01;100661.20;;;3.40
66403;BMP180;53212;52.112;5.144;2023-03-12T08:01:27;100666.80;;;3.44
66403;BMP180;53212;52.112;5.144;2023-03-12T08:03:59;100659.40;;;3.50
66403;BMP180;53212;52.112;5.144;2023-03-12T08:06:25;100659.80;;;3.56
66403;BMP180;53212;52.112;5.144;2023-03-12T08:08:51;100650.00;;;3.60
66403;BMP180;53212;52.112;5.144;2023-03-12T08:11:17;100655.80;;;3.64
66403;BMP180;53212;52.112;5.144;2023-03-12T08:13:42;100650.60;;;3.70
66403;BMP180;53212;52.112;5.144;2023-03-12T08:16:08;100660.60;;;3.80
66403;BMP180;53212;52.112;5.144;2023-03-12T08:18:33;100663.80;;;3.80
66403;BMP180;53212;52.112;5.144;2023-03-12T08:20:58;100660.40;;;3.80
66403;BMP180;53212;52.112;5.144;2023-03-12T08:23:24;100654.80;;;3.90
66403;BMP180;53212;52.112;5.144;2023-03-12T08:25:51;100660.20;;;4.00
66403;BMP180;53212;52.112;5.144;2023-03-12T08:28:19;100653.20;;;4.10
66403;BMP180;53212;52.112;5.144;2023-03-12T08:30:53;100659.40;;;4.10
66403;BMP180;53212;52.112;5.144;2023-03-12T08:33:20;100662.00;;;4.20
66403;BMP180;53212;52.112;5.144;2023-03-12T08:35:45;100664.40;;;4.20
66403;BMP180;53212;52.112;5.144;2023-03-12T08:38:11;100671.20;;;4.20
66403;BMP180;53212;52.112;5.144;2023-03-12T08:40:37;100667.40;;;4.30
66403;BMP180;53212;52.112;5.144;2023-03-12T08:43:02;100660.00;;;4.36
66403;BMP180;53212;52.112;5.144;2023-03-12T08:45:28;100664.80;;;4.40
66403;BMP180;53212;52.112;5.144;2023-03-12T08:47:53;100670.80;;;4.40
66403;BMP180;53212;52.112;5.144;2023-03-12T08:50:19;100676.40;;;4.50
66403;BMP180;53212;52.112;5.144;2023-03-12T08:52:46;100678.60;;;4.50
66403;BMP180;53212;52.112;5.144;2023-03-12T08:55:12;100672.40;;;4.62
66403;BMP180;53212;52.112;5.144;2023-03-12T08:57:38;100672.40;;;4.80
66403;BMP180;53212;52.112;5.144;2023-03-12T09:00:06;100674.40;;;4.98
66403;BMP180;53212;52.112;5.144;2023-03-12T09:02:36;100676.00;;;5.10
66403;BMP180;53212;52.112;5.144;2023-03-12T09:05:01;100685.40;;;5.26
66403;BMP180;53212;52.112;5.144;2023-03-12T09:07:27;100678.40;;;5.30
66403;BMP180;53212;52.112;5.144;2023-03-12T09:09:54;100672.20;;;5.50
66403;BMP180;53212;52.112;5.144;2023-03-12T09:12:19;100674.80;;;5.60
66403;BMP180;53212;52.112;5.144;2023-03-12T09:14:45;100668.20;;;5.70
66403;BMP180;53212;52.112;5.144;2023-03-12T09:17:10;100655.80;;;5.80
66403;BMP180;53212;52.112;5.144;2023-03-12T09:19:36;100658.20;;;5.90
66403;BMP180;53212;52.112;5.144;2023-03-12T09:22:01;100650.00;;;6.00
66403;BMP180;53212;52.112;5.144;2023-03-12T09:24:27;100654.80;;;6.20
66403;BMP180;53212;52.112;5.144;2023-03-12T09:26:52;100652.00;;;6.32
66403;BMP180;53212;52.112;5.144;2023-03-12T09:29:17;100652.20;;;6.40
66403;BMP180;53212;52.112;5.144;2023-03-12T09:31:43;100663.80;;;6.48
66403;BMP180;53212;52.112;5.144;2023-03-12T09:34:08;100662.60;;;6.50
66403;BMP180;53212;52.112;5.144;2023-03-12T09:36:34;100656.40;;;6.50
66403;BMP180;53212;52.112;5.144;2023-03-12T09:39:00;100661.80;;;6.48
66403;BMP180;53212;52.112;5.144;2023-03-12T09:41:34;100663.20;;;6.44
66403;BMP180;53212;52.112;5.144;2023-03-12T09:44:34;100662.20;;;6.50
66403;BMP180;53212;52.112;5.144;2023-03-12T09:47:07;100666.80;;;6.70
66403;BMP180;53212;52.112;5.144;2023-03-12T09:49:44;100667.00;;;6.70
66403;BMP180;53212;52.112;5.144;2023-03-12T09:55:20;100674.60;;;7.00
66403;BMP180;53212;52.112;5.144;2023-03-12T09:57:48;100680.60;;;7.20
66403;BMP180;53212;52.112;5.144;2023-03-12T10:00:21;100683.60;;;7.20
66403;BMP180;53212;52.112;5.144;2023-03-12T10:03:08;100678.60;;;7.30
66403;BMP180;53212;52.112;5.144;2023-03-12T10:06:00;100686.00;;;7.30
66403;BMP180;53212;52.112;5.144;2023-03-12T10:08:50;100684.80;;;7.40
66403;BMP180;53212;52.112;5.144;2023-03-12T10:11:59;100686.00;;;7.40
66403;BMP180;53212;52.112;5.144;2023-03-12T10:15:40;100689.80;;;7.48
66403;BMP180;53212;52.112;5.144;2023-03-12T10:21:19;100675.20;;;7.70
66403;BMP180;53212;52.112;5.144;2023-03-12T10:26:49;100680.00;;;7.90
66403;BMP180;53212;52.112;5.144;2023-03-12T10:29:23;100677.00;;;8.00
66403;BMP180;53212;52.112;5.144;2023-03-12T10:31:59;100675.00;;;8.20
66403;BMP180;53212;52.112;5.144;2023-03-12T10:35:16;100678.20;;;8.40
66403;BMP180;53212;52.112;5.144;2023-03-12T10:37:49;100686.00;;;8.60
66403;BMP180;53212;52.112;5.144;2023-03-12T10:40:26;100685.20;;;8.70
66403;BMP180;53212;52.112;5.144;2023-03-12T10:42:53;100680.60;;;8.80
66403;BMP180;53212;52.112;5.144;2023-03-12T10:48:21;100682.20;;;8.80
66403;BMP180;53212;52.112;5.144;2023-03-12T10:51:02;100676.40;;;8.72
66403;BMP180;53212;52.112;5.144;2023-03-12T10:53:34;100677.20;;;8.80
66403;BMP180;53212;52.112;5.144;2023-03-12T10:58:37;100687.80;;;8.74
66403;BMP180;53212;52.112;5.144;2023-03-12T11:01:05;100684.20;;;8.80
66403;BMP180;53212;52.112;5.144;2023-03-12T11:03:36;100687.40;;;8.90
66403;BMP180;53212;52.112;5.144;2023-03-12T11:06:02;100691.20;;;8.90
66403;BMP180;53212;52.112;5.144;2023-03-12T11:08:33;100689.00;;;8.90
66403;BMP180;53212;52.112;5.144;2023-03-12T11:11:01;100678.40;;;8.90
66403;BMP180;53212;52.112;5.144;2023-03-12T11:13:31;100678.40;;;9.00
66403;BMP180;53212;52.112;5.144;2023-03-12T11:16:23;100691.80;;;9.10
66403;BMP180;53212;52.112;5.144;2023-03-12T11:19:01;100704.40;;;9.20
66403;BMP180;53212;52.112;5.144;2023-03-12T11:21:30;100710.80;;;9.26
66403;BMP180;53212;52.112;5.144;2023-03-12T11:26:31;100707.40;;;9.30
66403;BMP180;53212;52.112;5.144;2023-03-12T11:34:50;100708.40;;;9.30
66403;BMP180;53212;52.112;5.144;2023-03-12T11:37:41;100702.80;;;9.30
66403;BMP180;53212;52.112;5.144;2023-03-12T11:48:32;100700.20;;;9.50
66403;BMP180;53212;52.112;5.144;2023-03-12T11:51:08;100692.60;;;9.64
66403;BMP180;53212;52.112;5.144;2023-03-12T11:59:21;100678.40;;;9.62
66403;BMP180;53212;52.112;5.144;2023-03-12T12:11:38;100669.00;;;10.10
66403;BMP180;53212;52.112;5.144;2023-03-12T12:14:24;100670.40;;;10.36
66403;BMP180;53212;52.112;5.144;2023-03-12T12:29:18;100654.80;;;10.90
66403;BMP180;53212;52.112;5.144;2023-03-12T12:31:54;100659.00;;;10.96
66403;BMP180;53212;52.112;5.144;2023-03-12T12:43:26;100670.60;;;10.90
66403;BMP180;53212;52.112;5.144;2023-03-12T12:46:01;100659.80;;;11.02
66403;BMP180;53212;52.112;5.144;2023-03-12T12:48:35;100659.80;;;11.20
66403;BMP180;53212;52.112;5.144;2023-03-12T12:51:03;100652.20;;;11.26
66403;BMP180;53212;52.112;5.144;2023-03-12T12:53:43;100640.20;;;11.34
66403;BMP180;53212;52.112;5.144;2023-03-12T12:56:19;100639.00;;;11.40
66403;BMP180;53212;52.112;5.144;2023-03-12T13:02:01;100633.60;;;11.68
66403;BMP180;53212;52.112;5.144;2023-03-12T13:04:35;100631.20;;;12.00
66403;BMP180;53212;52.112;5.144;2023-03-12T13:09:53;100623.20;;;12.22
66403;BMP180;53212;52.112;5.144;2023-03-12T13:12:48;100627.60;;;12.20
66403;BMP180;53212;52.112;5.144;2023-03-12T13:20:42;100635.00;;;11.60
66403;BMP180;53212;52.112;5.144;2023-03-12T13:23:36;100630.80;;;11.46
66403;BMP180;53212;52.112;5.144;2023-03-12T13:26:38;100632.00;;;11.50
66403;BMP180;53212;52.112;5.144;2023-03-12T13:31:53;100626.00;;;11.50
66403;BMP180;53212;52.112;5.144;2023-03-12T13:36:52;100634.00;;;11.60
66403;BMP180;53212;52.112;5.144;2023-03-12T13:39:31;100628.80;;;11.80
66403;BMP180;53212;52.112;5.144;2023-03-12T13:41:59;100636.20;;;12.00
66403;BMP180;53212;52.112;5.144;2023-03-12T13:52:30;100635.40;;;12.70
66403;BMP180;53212;52.112;5.144;2023-03-12T14:11:28;100658.20;;;13.02
66403;BMP180;53212;52.112;5.144;2023-03-12T14:16:51;100649.40;;;12.88
66403;BMP180;53212;52.112;5.144;2023-03-12T14:19:23;100661.80;;;12.66
66403;BMP180;53212;52.112;5.144;2023-03-12T14:21:50;100671.00;;;12.60
66403;BMP180;53212;52.112;5.144;2023-03-12T14:24:50;100669.80;;;12.40
66403;BMP180;53212;52.112;5.144;2023-03-12T14:27:27;100674.80;;;12.40
66403;BMP180;53212;52.112;5.144;2023-03-12T14:30:06;100681.00;;;12.40
66403;BMP180;53212;52.112;5.144;2023-03-12T14:32:35;100695.00;;;12.30
66403;BMP180;53212;52.112;5.144;2023-03-12T14:35:20;100684.00;;;12.40
66403;BMP180;53212;52.112;5.144;2023-03-12T14:37:59;100679.20;;;12.50
66403;BMP180;53212;52.112;5.144;2023-03-12T14:40:49;100675.20;;;12.50
66403;BMP180;53212;52.112;5.144;2023-03-12T14:43:26;100671.00;;;12.50
66403;BMP180;53212;52.112;5.144;2023-03-12T14:46:04;100684.60;;;12.40
66403;BMP180;53212;52.112;5.144;2023-03-12T14:48:35;100686.60;;;12.30
66403;BMP180;53212;52.112;5.144;2023-03-12T14:51:04;100693.20;;;12.14
66403;BMP180;53212;52.112;5.144;2023-03-12T14:53:33;100693.00;;;12.10
66403;BMP180;53212;52.112;5.144;2023-03-12T14:56:21;100704.20;;;12.08
66403;BMP180;53212;52.112;5.144;2023-03-12T14:58:53;100689.60;;;12.10
66403;BMP180;53212;52.112;5.144;2023-03-12T15:01:24;100690.00;;;12.10
66403;BMP180;53212;52.112;5.144;2023-03-12T15:04:14;100690.20;;;12.18
66403;BMP180;53212;52.112;5.144;2023-03-12T15:06:56;100685.80;;;12.20
66403;BMP180;53212;52.112;5.144;2023-03-12T15:09:28;100686.20;;;12.08
66403;BMP180;53212;52.112;5.144;2023-03-12T15:14:25;100690.60;;;12.00
66403;BMP180;53212;52.112;5.144;2023-03-12T15:16:52;100692.60;;;12.10
66403;BMP180;53212;52.112;5.144;2023-03-12T15:19:23;100693.20;;;12.10
66403;BMP180;53212;52.112;5.144;2023-03-12T15:21:50;100694.00;;;12.04
66403;BMP180;53212;52.112;5.144;2023-03-12T15:24:16;100687.60;;;11.98
66403;BMP180;53212;52.112;5.144;2023-03-12T15:26:42;100687.40;;;11.74
66403;BMP180;53212;52.112;5.144;2023-03-12T15:29:22;100675.20;;;11.60
66403;BMP180;53212;52.112;5.144;2023-03-12T15:31:56;100673.80;;;11.60
66403;BMP180;53212;52.112;5.144;2023-03-12T15:34:35;100668.00;;;11.50
66403;BMP180;53212;52.112;5.144;2023-03-12T15:37:18;100664.00;;;11.50
66403;BMP180;53212;52.112;5.144;2023-03-12T15:39:47;100678.60;;;11.40
66403;BMP180;53212;52.112;5.144;2023-03-12T15:42:21;100677.00;;;11.40
66403;BMP180;53212;52.112;5.144;2023-03-12T15:44:58;100673.60;;;11.50
66403;BMP180;53212;52.112;5.144;2023-03-12T15:47:30;100665.80;;;11.50
66403;BMP180;53212;52.112;5.144;2023-03-12T15:50:16;100663.40;;;11.50
66403;BMP180;53212;52.112;5.144;2023-03-12T15:55:34;100654.40;;;11.50
66403;BMP180;53212;52.112;5.144;2023-03-12T15:58:01;100653.20;;;11.50
66403;BMP180;53212;52.112;5.144;2023-03-12T16:02:59;100661.20;;;11.40
66403;BMP180;53212;52.112;5.144;2023-03-12T16:05:34;100658.60;;;11.40
66403;BMP180;53212;52.112;5.144;2023-03-12T16:10:35;100653.00;;;11.40
66403;BMP180;53212;52.112;5.144;2023-03-12T16:13:02;100648.40;;;11.38
66403;BMP180;53212;52.112;5.144;2023-03-12T16:15:33;100643.80;;;11.38
66403;BMP180;53212;52.112;5.144;2023-03-12T16:18:00;100643.40;;;11.32
66403;BMP180;53212;52.112;5.144;2023-03-12T16:20:26;100641.60;;;11.30
66403;BMP180;53212;52.112;5.144;2023-03-12T16:22:51;100639.40;;;11.30
66403;BMP180;53212;52.112;5.144;2023-03-12T16:25:18;100636.00;;;11.20
66403;BMP180;53212;52.112;5.144;2023-03-12T16:27:55;100650.40;;;11.10
66403;BMP180;53212;52.112;5.144;2023-03-12T16:30:33;100641.40;;;11.10